createdAt,value
2022-08-31T00:01:05.144Z,1.87
2022-08-31T00:03:51.918Z,2.57
2022-08-31T00:06:20.880Z,2.47
2022-08-31T00:08:49.406Z,1.70
2022-08-31T00:11:27.244Z,2.13
2022-08-31T00:13:59.065Z,1.70
2022-08-31T00:16:32.047Z,1.83
2022-08-31T00:19:01.344Z,1.90
2022-08-31T00:21:29.864Z,1.87
2022-08-31T00:24:00.640Z,1.90
2022-08-31T00:26:29.173Z,1.93
2022-08-31T00:28:59.892Z,2.10
2022-08-31T00:31:28.960Z,2.20
2022-08-31T00:33:58.200Z,1.80
2022-08-31T00:36:27.388Z,2.00
2022-08-31T00:38:56.586Z,1.55
2022-08-31T00:41:27.842Z,1.63
2022-08-31T00:43:58.528Z,1.97
2022-08-31T00:46:29.810Z,1.87
2022-08-31T00:49:04.478Z,2.20
2022-08-31T00:51:39.405Z,2.00
2022-08-31T00:54:10.876Z,2.20
2022-08-31T00:56:40.948Z,2.37
2022-08-31T00:59:09.935Z,2.00
2022-08-31T01:01:38.729Z,1.80
2022-08-31T01:04:07.750Z,1.85
2022-08-31T01:06:37.057Z,2.33
2022-08-31T01:09:07.438Z,1.70
2022-08-31T01:11:38.786Z,2.33
2022-08-31T01:14:08.775Z,2.10
2022-08-31T01:16:42.671Z,1.63
2022-08-31T01:19:22.467Z,1.63
2022-08-31T01:22:00.019Z,2.50
2022-08-31T01:24:30.684Z,1.80
2022-08-31T01:27:04.230Z,2.10
2022-08-31T01:29:33.016Z,1.77
2022-08-31T01:32:03.801Z,2.10
2022-08-31T01:34:32.598Z,2.00
2022-08-31T01:37:01.734Z,1.90
2022-08-31T01:39:30.380Z,1.90
2022-08-31T01:41:59.390Z,1.90
2022-08-31T01:44:29.145Z,1.70
2022-08-31T01:46:59.107Z,2.60
2022-08-31T01:49:29.358Z,1.70
2022-08-31T01:51:59.295Z,1.97
2022-08-31T01:54:28.030Z,2.10
2022-08-31T01:57:00.128Z,2.00
2022-08-31T01:59:41.746Z,2.20
2022-08-31T02:02:30.319Z,2.20
2022-08-31T02:05:00.468Z,2.13
2022-08-31T02:07:29.432Z,1.80
2022-08-31T02:09:58.556Z,2.40
2022-08-31T02:12:27.447Z,2.53
2022-08-31T02:14:56.018Z,1.93
2022-08-31T02:17:24.682Z,2.30
2022-08-31T02:19:53.255Z,2.57
2022-08-31T02:22:21.899Z,2.60
2022-08-31T02:24:50.780Z,2.30
2022-08-31T02:27:19.357Z,2.67
2022-08-31T02:29:47.882Z,2.30
2022-08-31T02:32:20.667Z,2.50
2022-08-31T02:34:49.917Z,2.40
2022-08-31T02:37:20.944Z,2.17
2022-08-31T02:39:50.364Z,2.63
2022-08-31T02:42:19.686Z,2.17
2022-08-31T02:44:48.314Z,1.90
2022-08-31T02:47:16.850Z,1.80
2022-08-31T02:49:57.526Z,2.60
2022-08-31T02:52:26.155Z,1.57
2022-08-31T02:54:55.898Z,2.47
2022-08-31T02:57:24.685Z,2.70
2022-08-31T02:59:53.475Z,2.10
2022-08-31T03:02:23.455Z,2.40
2022-08-31T03:05:02.433Z,2.03
2022-08-31T03:07:33.468Z,2.53
2022-08-31T03:10:02.014Z,2.20
2022-08-31T03:12:30.463Z,2.13
2022-08-31T03:15:01.927Z,2.23
2022-08-31T03:17:30.487Z,2.70
2022-08-31T03:20:02.245Z,2.27
2022-08-31T03:22:31.963Z,2.37
2022-08-31T03:25:01.596Z,2.43
2022-08-31T03:27:31.111Z,2.20
2022-08-31T03:30:00.705Z,2.20
2022-08-31T03:32:33.235Z,2.40
2022-08-31T03:35:03.695Z,2.63
2022-08-31T03:37:33.339Z,2.40
2022-08-31T03:40:04.795Z,2.23
2022-08-31T03:42:34.403Z,2.30
2022-08-31T03:45:04.631Z,2.50
2022-08-31T03:47:35.344Z,2.50
2022-08-31T03:50:05.619Z,2.43
2022-08-31T03:52:43.892Z,2.33
2022-08-31T03:55:16.751Z,2.00
2022-08-31T03:57:45.423Z,2.23
2022-08-31T04:00:15.788Z,2.67
2022-08-31T04:02:44.600Z,2.10
2022-08-31T04:05:41.646Z,2.30
2022-08-31T04:08:25.844Z,2.27
2022-08-31T04:11:16.235Z,2.20
2022-08-31T04:14:04.244Z,2.30
2022-08-31T04:16:40.785Z,1.70
2022-08-31T04:19:11.209Z,2.50
2022-08-31T04:21:47.209Z,2.40
2022-08-31T04:24:15.900Z,2.10
2022-08-31T04:26:44.970Z,2.20
2022-08-31T04:29:13.927Z,2.33
2022-08-31T04:31:43.477Z,2.20
2022-08-31T04:34:13.535Z,2.27
2022-08-31T04:36:44.802Z,2.10
2022-08-31T04:39:14.409Z,2.10
2022-08-31T04:41:43.504Z,1.87
2022-08-31T04:44:17.741Z,1.80
2022-08-31T04:46:49.426Z,1.80
2022-08-31T04:49:18.834Z,2.13
2022-08-31T04:51:47.729Z,2.10
2022-08-31T04:54:16.392Z,1.90
2022-08-31T04:56:46.192Z,2.20
2022-08-31T04:59:25.618Z,2.30
2022-08-31T05:02:09.802Z,1.80
2022-08-31T05:04:45.266Z,2.20
2022-08-31T05:07:14.600Z,2.20
2022-08-31T05:09:43.236Z,1.93
2022-08-31T05:12:11.771Z,2.30
2022-08-31T05:14:40.254Z,1.80
2022-08-31T05:17:18.050Z,1.80
2022-08-31T05:19:46.761Z,2.43
2022-08-31T05:22:16.426Z,1.60
2022-08-31T05:24:47.691Z,2.40
2022-08-31T05:27:16.602Z,2.40
2022-08-31T05:29:45.574Z,2.83
2022-08-31T05:32:39.964Z,2.50
2022-08-31T05:35:12.195Z,2.17
2022-08-31T05:37:42.747Z,2.20
2022-08-31T05:40:13.003Z,1.90
2022-08-31T05:42:42.205Z,2.43
2022-08-31T05:45:12.099Z,1.90
2022-08-31T05:47:41.301Z,2.33
2022-08-31T05:50:11.126Z,2.00
2022-08-31T05:52:41.831Z,1.87
2022-08-31T05:55:11.825Z,2.20
2022-08-31T05:57:40.535Z,2.10
2022-08-31T06:00:11.854Z,1.83
2022-08-31T06:02:45.617Z,1.87
2022-08-31T06:05:15.702Z,1.90
2022-08-31T06:07:46.510Z,2.00
2022-08-31T06:10:20.679Z,1.70
2022-08-31T06:12:50.285Z,2.15
2022-08-31T06:15:20.527Z,2.33
2022-08-31T06:17:49.171Z,2.30
2022-08-31T06:20:18.239Z,2.20
2022-08-31T06:22:48.936Z,2.13
2022-08-31T06:25:30.064Z,2.50
2022-08-31T06:34:23.209Z,2.20
2022-08-31T06:37:10.867Z,2.17
2022-08-31T06:40:13.930Z,2.40
2022-08-31T06:43:07.261Z,2.53
2022-08-31T06:45:58.688Z,1.93
2022-08-31T06:48:33.105Z,2.50
2022-08-31T06:51:02.551Z,1.50
2022-08-31T06:53:31.298Z,1.83
2022-08-31T06:56:20.688Z,1.33
2022-08-31T06:59:09.942Z,1.60
2022-08-31T07:01:55.016Z,1.30
2022-08-31T07:04:36.730Z,1.40
2022-08-31T07:07:08.477Z,1.73
2022-08-31T07:09:39.067Z,1.77
2022-08-31T07:12:08.414Z,1.10
2022-08-31T07:14:37.356Z,1.03
2022-08-31T07:17:08.599Z,1.03
2022-08-31T07:19:37.738Z,0.80
2022-08-31T07:22:15.570Z,1.57
2022-08-31T07:24:47.146Z,1.12
2022-08-31T07:27:17.851Z,1.07
2022-08-31T07:29:59.717Z,1.00
2022-08-31T07:32:31.840Z,1.40
2022-08-31T07:35:01.439Z,1.10
2022-08-31T07:37:51.536Z,1.20
2022-08-31T07:40:43.741Z,1.47
2022-08-31T07:43:15.587Z,1.60
2022-08-31T07:45:46.130Z,1.37
2022-08-31T07:48:20.044Z,1.20
2022-08-31T07:51:28.285Z,1.07
2022-08-31T07:54:20.172Z,1.20
2022-08-31T07:57:03.981Z,1.17
2022-08-31T07:59:34.545Z,1.15
2022-08-31T08:02:03.556Z,1.40
2022-08-31T08:04:34.592Z,1.57
2022-08-31T08:07:22.823Z,0.90
2022-08-31T08:10:00.419Z,1.43
2022-08-31T08:12:56.770Z,1.10
2022-08-31T08:15:46.009Z,1.20
2022-08-31T08:18:31.183Z,0.87
2022-08-31T08:21:03.441Z,1.03
2022-08-31T08:23:32.254Z,0.97
2022-08-31T08:26:31.212Z,1.00
2022-08-31T08:29:16.947Z,1.03
2022-08-31T08:31:52.560Z,0.90
2022-08-31T08:34:27.138Z,0.90
2022-08-31T08:37:02.254Z,1.00
2022-08-31T08:39:31.346Z,0.97
2022-08-31T08:42:14.679Z,0.90
2022-08-31T08:44:44.547Z,1.23
2022-08-31T08:47:18.442Z,0.80
2022-08-31T08:49:55.550Z,0.93
2022-08-31T08:52:28.769Z,0.90
2022-08-31T08:55:06.366Z,1.20
2022-08-31T08:57:39.107Z,1.00
2022-08-31T09:00:12.062Z,0.70
2022-08-31T09:02:49.878Z,0.80
2022-08-31T09:05:38.297Z,1.67
2022-08-31T09:08:43.642Z,0.90
2022-08-31T09:11:18.273Z,0.93
2022-08-31T09:13:58.558Z,1.40
2022-08-31T09:16:40.483Z,1.10
2022-08-31T09:19:14.971Z,1.10
2022-08-31T09:21:47.520Z,1.00
2022-08-31T09:24:20.209Z,0.73
2022-08-31T09:27:17.369Z,0.83
2022-08-31T09:29:47.867Z,1.20
2022-08-31T09:32:24.455Z,1.47
2022-08-31T09:35:01.071Z,0.80
2022-08-31T09:37:32.976Z,1.00
2022-08-31T09:40:16.962Z,1.07
2022-08-31T09:43:03.653Z,0.63
2022-08-31T09:45:39.961Z,1.00
2022-08-31T09:48:11.294Z,1.23
2022-08-31T09:50:44.485Z,0.90
2022-08-31T09:56:16.541Z,0.80
2022-08-31T09:58:51.251Z,1.60
2022-08-31T10:01:25.106Z,1.03
2022-08-31T10:04:11.722Z,1.20
2022-08-31T10:06:51.076Z,1.20
2022-08-31T10:09:28.190Z,1.00
2022-08-31T10:12:01.226Z,0.90
2022-08-31T10:17:12.582Z,1.10
2022-08-31T10:19:52.791Z,1.20
2022-08-31T10:22:30.149Z,1.17
2022-08-31T10:25:12.510Z,0.93
2022-08-31T10:27:48.168Z,1.20
2022-08-31T10:30:24.468Z,1.00
2022-08-31T10:32:59.689Z,0.80
2022-08-31T10:35:37.134Z,0.85
2022-08-31T10:38:20.921Z,1.07
2022-08-31T10:40:54.300Z,0.83
2022-08-31T10:43:28.713Z,0.90
2022-08-31T10:46:01.750Z,0.80
2022-08-31T10:48:31.436Z,0.90
2022-08-31T10:51:14.205Z,0.77
2022-08-31T10:53:52.401Z,1.40
2022-08-31T10:56:39.339Z,1.13
2022-08-31T10:59:17.552Z,0.90
2022-08-31T11:01:55.893Z,0.70
2022-08-31T11:04:48.459Z,0.80
2022-08-31T11:07:40.211Z,1.10
2022-08-31T11:10:20.471Z,1.00
2022-08-31T11:12:57.658Z,0.80
2022-08-31T11:15:43.652Z,0.80
2022-08-31T11:18:51.349Z,0.80
2022-08-31T11:22:02.427Z,0.90
2022-08-31T11:24:48.624Z,0.97
2022-08-31T11:27:24.656Z,0.90
2022-08-31T11:30:00.246Z,1.00
2022-08-31T11:32:36.007Z,0.60
2022-08-31T11:35:09.808Z,1.00
2022-08-31T11:37:55.142Z,1.00
2022-08-31T11:41:11.540Z,0.90
2022-08-31T11:43:51.477Z,1.10
2022-08-31T11:46:42.876Z,1.10
2022-08-31T11:49:45.697Z,0.80
2022-08-31T11:52:42.902Z,0.97
2022-08-31T11:55:20.550Z,0.70
2022-08-31T11:58:25.375Z,1.20
2022-08-31T12:01:02.619Z,1.00
2022-08-31T12:03:53.306Z,1.07
2022-08-31T12:07:06.847Z,0.73
2022-08-31T12:10:11.908Z,1.47
2022-08-31T12:13:18.042Z,0.80
2022-08-31T12:16:05.075Z,0.70
2022-08-31T12:18:49.216Z,0.80
2022-08-31T12:24:23.319Z,0.77
2022-08-31T12:27:09.718Z,1.10
2022-08-31T12:29:41.481Z,0.95
2022-08-31T12:32:31.100Z,0.73
2022-08-31T12:35:10.834Z,0.97
2022-08-31T12:37:40.297Z,0.80
2022-08-31T12:40:17.773Z,0.90
2022-08-31T12:42:57.133Z,1.00
2022-08-31T12:45:49.022Z,1.00
2022-08-31T12:48:32.805Z,0.90
2022-08-31T12:51:14.244Z,0.70
2022-08-31T12:54:01.210Z,0.60
2022-08-31T12:56:39.015Z,1.27
2022-08-31T12:59:23.377Z,0.60
2022-08-31T13:01:52.423Z,0.90
2022-08-31T13:04:22.121Z,0.93
2022-08-31T13:06:50.712Z,0.87
2022-08-31T13:09:28.323Z,0.83
2022-08-31T13:11:59.812Z,0.80
2022-08-31T13:14:30.346Z,1.20
2022-08-31T13:17:05.213Z,1.03
2022-08-31T13:19:35.789Z,0.73
2022-08-31T13:22:07.081Z,0.90
2022-08-31T13:24:40.513Z,1.10
2022-08-31T13:27:19.341Z,0.70
2022-08-31T13:29:49.526Z,1.03
2022-08-31T13:32:32.273Z,0.70
2022-08-31T13:35:05.188Z,0.80
2022-08-31T13:37:38.799Z,1.20
2022-08-31T13:42:42.235Z,0.67
2022-08-31T13:45:26.107Z,0.70
2022-08-31T13:48:00.927Z,0.90
2022-08-31T13:50:36.073Z,0.80
2022-08-31T13:55:55.149Z,0.90
2022-08-31T13:58:28.927Z,0.70
2022-08-31T14:01:23.680Z,1.03
2022-08-31T14:03:56.754Z,0.97
2022-08-31T14:06:28.091Z,0.83
2022-08-31T14:09:02.927Z,0.70
2022-08-31T14:11:35.364Z,0.70
2022-08-31T14:14:07.739Z,0.90
2022-08-31T14:16:39.312Z,1.03
2022-08-31T14:19:12.563Z,0.60
2022-08-31T14:21:43.048Z,1.40
2022-08-31T14:24:12.234Z,0.70
2022-08-31T14:26:43.595Z,0.90
2022-08-31T14:29:15.515Z,0.73
2022-08-31T14:31:48.757Z,0.83
2022-08-31T14:34:24.718Z,0.72
2022-08-31T14:37:01.870Z,1.13
2022-08-31T14:39:33.699Z,0.80
2022-08-31T14:42:06.993Z,0.93
2022-08-31T14:44:39.100Z,0.72
2022-08-31T14:47:09.420Z,0.73
2022-08-31T14:49:40.638Z,0.90
2022-08-31T14:52:12.457Z,0.90
2022-08-31T14:54:42.544Z,0.70
2022-08-31T14:57:13.889Z,1.10
2022-08-31T14:59:46.433Z,0.97
2022-08-31T15:02:21.509Z,0.88
2022-08-31T15:04:51.688Z,0.80
2022-08-31T15:07:21.107Z,0.90
2022-08-31T15:09:50.422Z,0.90
2022-08-31T15:12:18.987Z,0.97
2022-08-31T15:14:47.529Z,0.87
2022-08-31T15:17:19.602Z,1.10
2022-08-31T15:19:54.652Z,1.17
2022-08-31T15:22:25.568Z,0.80
2022-08-31T15:24:55.253Z,1.10
2022-08-31T15:27:28.187Z,1.30
2022-08-31T15:30:04.169Z,0.95
2022-08-31T15:32:32.950Z,1.07
2022-08-31T15:35:01.429Z,1.27
2022-08-31T15:37:32.330Z,0.70
2022-08-31T15:40:04.059Z,1.00
2022-08-31T15:42:38.998Z,1.00
2022-08-31T15:45:09.856Z,1.03
2022-08-31T15:47:59.117Z,1.10
2022-08-31T15:50:31.685Z,0.90
2022-08-31T15:53:09.323Z,0.88
2022-08-31T15:55:40.025Z,1.27
2022-08-31T15:58:09.596Z,1.25
2022-08-31T16:00:41.106Z,1.00
2022-08-31T16:03:10.450Z,1.00
2022-08-31T16:05:39.675Z,0.80
2022-08-31T16:08:11.533Z,1.00
2022-08-31T16:10:44.114Z,1.07
2022-08-31T16:13:15.163Z,1.00
2022-08-31T16:15:50.569Z,0.70
2022-08-31T16:18:21.369Z,0.90
2022-08-31T16:20:51.191Z,1.27
2022-08-31T16:23:20.865Z,0.70
2022-08-31T16:25:49.723Z,1.03
2022-08-31T16:28:20.229Z,1.10
2022-08-31T16:30:51.365Z,1.30
2022-08-31T16:33:20.654Z,1.05
2022-08-31T16:35:50.190Z,1.10
2022-08-31T16:38:20.148Z,1.07
2022-08-31T16:40:49.004Z,1.03
2022-08-31T16:43:17.567Z,1.23
2022-08-31T16:45:46.155Z,1.00
2022-08-31T16:48:33.432Z,1.40
2022-08-31T16:51:02.550Z,1.20
2022-08-31T16:53:31.634Z,1.07
2022-08-31T16:56:03.140Z,1.37
2022-08-31T16:58:51.098Z,1.50
2022-08-31T17:01:23.094Z,1.10
2022-08-31T17:03:55.258Z,1.30
2022-08-31T17:06:24.823Z,1.40
2022-08-31T17:08:55.203Z,1.20
2022-08-31T17:11:26.388Z,1.33
2022-08-31T17:14:00.619Z,1.60
2022-08-31T17:16:32.590Z,1.43
2022-08-31T17:19:03.769Z,1.30
2022-08-31T17:21:32.921Z,1.30
2022-08-31T17:24:04.464Z,1.00
2022-08-31T17:26:34.159Z,1.30
2022-08-31T17:29:05.236Z,1.50
2022-08-31T17:31:41.616Z,1.43
2022-08-31T17:34:14.143Z,1.20
2022-08-31T17:36:45.438Z,1.10
2022-08-31T17:39:16.307Z,1.40
2022-08-31T17:41:48.365Z,1.37
2022-08-31T17:44:19.003Z,1.47
2022-08-31T17:46:51.728Z,1.10
2022-08-31T17:49:22.592Z,1.20
2022-08-31T17:51:52.986Z,1.30
2022-08-31T17:54:23.418Z,1.10
2022-08-31T17:56:56.511Z,1.20
2022-08-31T17:59:27.789Z,1.20
2022-08-31T18:01:58.549Z,0.80
2022-08-31T18:04:28.760Z,0.97
2022-08-31T18:07:00.517Z,1.80
2022-08-31T18:09:32.529Z,3.73
2022-08-31T18:12:02.088Z,5.00
2022-08-31T18:14:32.733Z,5.10
2022-08-31T18:17:03.897Z,3.33
2022-08-31T18:19:34.194Z,2.20
2022-08-31T18:22:03.323Z,1.67
2022-08-31T18:24:35.061Z,1.70
2022-08-31T18:27:06.700Z,1.90
2022-08-31T18:29:36.712Z,1.60
2022-08-31T18:32:07.735Z,1.53
2022-08-31T18:34:40.504Z,1.70
2022-08-31T18:37:10.296Z,1.70
2022-08-31T18:39:54.206Z,1.23
2022-08-31T18:45:18.612Z,1.30
2022-08-31T18:48:07.507Z,1.50
2022-08-31T18:50:41.853Z,2.20
2022-08-31T18:53:15.505Z,1.50
2022-08-31T18:55:56.256Z,1.60
2022-08-31T18:58:24.990Z,1.83
2022-08-31T19:00:58.103Z,1.30
2022-08-31T19:03:28.439Z,1.40
2022-08-31T19:05:58.349Z,1.60
2022-08-31T19:08:27.757Z,1.60
2022-08-31T19:10:57.526Z,1.30
2022-08-31T19:13:31.057Z,1.83
2022-08-31T19:16:10.909Z,1.40
2022-08-31T19:18:45.458Z,1.47
2022-08-31T19:21:18.235Z,1.30
2022-08-31T19:23:47.988Z,1.30
2022-08-31T19:26:22.360Z,1.20
2022-08-31T19:28:51.584Z,1.30
2022-08-31T19:31:21.650Z,1.17
2022-08-31T19:33:56.683Z,1.13
2022-08-31T19:36:31.570Z,1.20
2022-08-31T19:39:00.759Z,1.00
2022-08-31T19:41:31.633Z,1.00
2022-08-31T19:44:08.109Z,1.13
2022-08-31T19:46:40.393Z,1.20
2022-08-31T19:49:10.441Z,0.90
2022-08-31T19:51:41.190Z,1.37
2022-08-31T19:54:11.896Z,1.30
2022-08-31T19:56:43.181Z,1.30
2022-08-31T19:59:17.712Z,1.53
2022-08-31T20:01:51.722Z,1.20
2022-08-31T20:04:25.645Z,1.17
2022-08-31T20:06:56.645Z,1.60
2022-08-31T20:09:26.475Z,1.30
2022-08-31T20:11:56.317Z,1.53
2022-08-31T20:14:25.660Z,1.30
2022-08-31T20:16:54.684Z,1.60
2022-08-31T20:19:27.649Z,1.63
2022-08-31T20:22:02.983Z,1.37
2022-08-31T20:24:31.576Z,1.77
2022-08-31T20:27:01.693Z,1.43
2022-08-31T20:29:38.363Z,1.60
2022-08-31T20:32:07.589Z,1.50
2022-08-31T20:34:37.718Z,1.50
2022-08-31T20:37:07.032Z,2.00
2022-08-31T20:39:38.801Z,1.43
2022-08-31T20:42:07.934Z,1.20
2022-08-31T20:44:37.753Z,1.60
2022-08-31T20:47:27.175Z,1.67
2022-08-31T20:49:58.272Z,1.90
2022-08-31T20:52:29.967Z,1.80
2022-08-31T20:55:01.645Z,1.83
2022-08-31T20:57:34.527Z,1.73
2022-08-31T21:00:06.117Z,1.70
2022-08-31T21:02:35.232Z,1.77
2022-08-31T21:05:36.407Z,1.50
2022-08-31T21:07:57.527Z,1.67
2022-08-31T21:10:37.067Z,1.60
2022-08-31T21:13:09.637Z,2.07
2022-08-31T21:15:42.653Z,1.90
2022-08-31T21:18:11.579Z,1.67
2022-08-31T21:20:40.505Z,1.57
2022-08-31T21:23:12.137Z,2.00
2022-08-31T21:25:43.471Z,1.80
2022-08-31T21:28:16.605Z,1.60
2022-08-31T21:30:46.696Z,1.80
2022-08-31T21:33:15.774Z,1.53
2022-08-31T21:35:44.508Z,1.73
2022-08-31T21:38:13.475Z,1.30
2022-08-31T21:40:49.116Z,1.97
2022-08-31T21:43:17.917Z,1.80
2022-08-31T21:45:48.083Z,1.73
2022-08-31T21:48:19.066Z,1.70
2022-08-31T21:50:55.876Z,1.63
2022-08-31T21:53:26.630Z,1.63
2022-08-31T21:55:55.795Z,1.53
2022-08-31T21:58:24.763Z,1.10
2022-08-31T22:00:54.972Z,1.10
2022-08-31T22:03:24.020Z,1.23
2022-08-31T22:05:53.087Z,1.65
2022-08-31T22:08:25.668Z,1.60
2022-08-31T22:10:55.152Z,1.57
2022-08-31T22:13:23.685Z,1.70
2022-08-31T22:15:53.443Z,1.43
2022-08-31T22:21:15.600Z,1.60
2022-08-31T22:23:47.187Z,1.87
2022-08-31T22:26:17.703Z,1.40
2022-08-31T22:28:46.635Z,1.40
2022-08-31T22:31:17.675Z,1.50
2022-08-31T22:33:49.252Z,0.97
2022-08-31T22:36:31.161Z,1.13
2022-08-31T22:39:02.944Z,1.53
2022-08-31T22:41:33.003Z,1.40
2022-08-31T22:44:02.105Z,1.03
2022-08-31T22:46:31.257Z,1.10
2022-08-31T22:49:01.407Z,1.27
2022-08-31T22:51:30.308Z,1.20
2022-08-31T22:53:59.714Z,1.00
2022-08-31T22:56:32.167Z,1.30
2022-08-31T22:59:04.729Z,1.30
2022-08-31T23:01:36.567Z,1.50
2022-08-31T23:04:08.350Z,2.10
2022-08-31T23:06:38.887Z,1.00
2022-08-31T23:09:10.369Z,1.10
2022-08-31T23:11:40.162Z,1.30
2022-08-31T23:14:09.956Z,1.17
2022-08-31T23:16:41.671Z,0.90
2022-08-31T23:19:13.753Z,1.33
2022-08-31T23:21:47.216Z,1.40
2022-08-31T23:24:25.527Z,1.10
2022-08-31T23:27:00.308Z,1.40
2022-08-31T23:29:33.961Z,1.03
2022-08-31T23:32:03.989Z,0.97
2022-08-31T23:34:35.853Z,0.90
2022-08-31T23:37:07.387Z,1.23
2022-08-31T23:39:37.568Z,1.20
2022-08-31T23:42:10.917Z,1.40
2022-08-31T23:44:43.032Z,1.40
2022-08-31T23:47:14.102Z,1.30
2022-08-31T23:49:44.130Z,1.20
2022-08-31T23:52:18.305Z,1.37
2022-08-31T23:54:47.730Z,1.50
2022-08-31T23:57:33.021Z,1.30
